createdAt,value
2022-12-11T00:00:26.763Z,4.53
2022-12-11T00:02:54.072Z,4.78
2022-12-11T00:05:21.142Z,3.90
2022-12-11T00:07:48.368Z,3.60
2022-12-11T00:10:15.711Z,3.42
2022-12-11T00:12:42.516Z,3.38
2022-12-11T00:15:10.089Z,3.40
2022-12-11T00:17:37.693Z,3.77
2022-12-11T00:20:05.365Z,4.10
2022-12-11T00:22:32.634Z,3.30
2022-12-11T00:24:59.894Z,4.00
2022-12-11T00:27:27.382Z,3.85
2022-12-11T00:29:54.608Z,3.90
2022-12-11T00:32:21.839Z,3.83
2022-12-11T00:34:49.048Z,4.18
2022-12-11T00:37:16.374Z,3.90
2022-12-11T00:39:44.111Z,3.95
2022-12-11T00:42:11.507Z,3.33
2022-12-11T00:44:38.745Z,3.30
2022-12-11T00:47:06.013Z,4.32
2022-12-11T00:49:33.244Z,3.88
2022-12-11T00:52:00.452Z,4.00
2022-12-11T00:54:27.309Z,3.95
2022-12-11T00:56:56.269Z,3.30
2022-12-11T00:59:23.568Z,2.90
2022-12-11T01:01:50.817Z,2.90
2022-12-11T01:04:18.058Z,3.20
2022-12-11T01:06:45.319Z,3.15
2022-12-11T01:09:31.292Z,3.10
2022-12-11T01:11:58.544Z,3.00
2022-12-11T01:14:26.854Z,3.20
2022-12-11T01:16:54.184Z,3.53
2022-12-11T01:19:21.522Z,3.13
2022-12-11T01:21:48.811Z,3.47
2022-12-11T01:24:16.132Z,3.67
2022-12-11T01:26:43.376Z,2.50
2022-12-11T01:29:11.168Z,2.97
2022-12-11T01:31:38.739Z,3.03
2022-12-11T01:34:05.982Z,3.28
2022-12-11T01:36:33.284Z,3.58
2022-12-11T01:39:00.604Z,3.03
2022-12-11T01:41:27.870Z,2.97
2022-12-11T01:44:14.740Z,2.83
2022-12-11T01:46:42.169Z,2.53
2022-12-11T01:49:13.868Z,3.00
2022-12-11T01:51:52.292Z,2.85
2022-12-11T01:54:21.362Z,2.90
2022-12-11T01:56:50.441Z,3.15
2022-12-11T01:59:22.131Z,2.72
2022-12-11T02:01:59.523Z,2.92
2022-12-11T02:04:26.538Z,3.33
2022-12-11T02:06:54.279Z,3.28
2022-12-11T02:09:32.209Z,3.03
2022-12-11T02:12:03.763Z,3.30
2022-12-11T02:14:45.281Z,3.15
2022-12-11T02:17:17.838Z,3.10
2022-12-11T02:20:05.973Z,2.78
2022-12-11T02:22:33.196Z,3.10
2022-12-11T02:25:21.814Z,2.80
2022-12-11T02:30:24.965Z,2.15
2022-12-11T02:32:51.794Z,3.00
2022-12-11T02:35:19.138Z,2.65
2022-12-11T02:37:48.571Z,2.60
2022-12-11T02:40:20.639Z,2.50
2022-12-11T02:42:49.681Z,2.72
2022-12-11T02:45:18.386Z,2.40
2022-12-11T02:50:18.151Z,2.63
2022-12-11T02:52:47.188Z,2.90
2022-12-11T02:55:16.591Z,2.65
2022-12-11T02:57:55.386Z,2.58
2022-12-11T03:00:22.786Z,2.75
2022-12-11T03:02:50.260Z,2.53
2022-12-11T03:05:17.275Z,3.10
2022-12-11T03:07:45.316Z,3.28
2022-12-11T03:10:15.819Z,2.80
2022-12-11T03:12:51.817Z,3.08
2022-12-11T03:15:24.078Z,2.83
2022-12-11T03:18:01.264Z,3.28
2022-12-11T03:20:43.067Z,3.15
2022-12-11T03:23:32.381Z,2.53
2022-12-11T03:26:08.633Z,3.17
2022-12-11T03:28:36.073Z,2.80
2022-12-11T03:31:08.765Z,2.97
2022-12-11T03:33:42.259Z,3.20
2022-12-11T03:36:14.103Z,3.15
2022-12-11T03:38:49.342Z,3.22
2022-12-11T03:41:20.160Z,3.50
2022-12-11T03:43:49.210Z,3.60
2022-12-11T03:46:18.832Z,3.63
2022-12-11T03:48:47.725Z,3.40
2022-12-11T03:51:16.895Z,3.80
2022-12-11T03:53:44.420Z,3.47
2022-12-11T03:56:14.000Z,3.63
2022-12-11T03:58:41.235Z,4.05
2022-12-11T04:01:11.767Z,4.65
2022-12-11T04:03:39.193Z,4.53
2022-12-11T04:06:06.521Z,4.43
2022-12-11T04:08:33.806Z,4.43
2022-12-11T04:11:21.415Z,5.63
2022-12-11T04:14:08.618Z,4.63
2022-12-11T04:16:35.951Z,5.45
2022-12-11T04:19:21.471Z,5.40
2022-12-11T04:22:07.594Z,5.22
2022-12-11T04:24:34.903Z,5.30
2022-12-11T04:27:02.161Z,4.15
2022-12-11T04:29:29.446Z,3.38
2022-12-11T04:31:56.662Z,3.70
2022-12-11T04:34:23.872Z,4.00
2022-12-11T04:36:51.287Z,3.90
2022-12-11T04:39:18.587Z,4.00
2022-12-11T04:41:45.458Z,3.60
2022-12-11T04:44:12.368Z,3.50
2022-12-11T04:46:39.695Z,3.78
2022-12-11T04:49:06.966Z,3.55
2022-12-11T04:51:34.312Z,4.47
2022-12-11T04:54:01.541Z,3.97
2022-12-11T04:56:28.820Z,3.95
2022-12-11T04:58:56.089Z,4.10
2022-12-11T05:01:23.653Z,4.15
2022-12-11T05:03:51.087Z,4.22
2022-12-11T05:06:18.335Z,4.80
2022-12-11T05:08:45.969Z,3.78
2022-12-11T05:11:15.105Z,3.58
2022-12-11T05:13:43.188Z,3.97
2022-12-11T05:16:12.691Z,3.60
2022-12-11T05:18:39.791Z,3.50
2022-12-11T05:21:09.781Z,3.38
2022-12-11T05:23:37.364Z,3.78
2022-12-11T05:26:11.605Z,3.58
2022-12-11T05:28:39.888Z,4.03
2022-12-11T05:31:17.249Z,4.53
2022-12-11T05:33:45.208Z,4.10
2022-12-11T05:36:38.520Z,3.53
2022-12-11T05:39:05.856Z,4.13
2022-12-11T05:41:33.201Z,4.43
2022-12-11T05:44:00.580Z,4.13
2022-12-11T05:46:29.518Z,4.45
2022-12-11T05:48:59.529Z,4.38
2022-12-11T05:51:27.605Z,4.15
2022-12-11T05:53:56.422Z,4.18
2022-12-11T05:56:29.451Z,3.60
2022-12-11T05:58:57.231Z,4.30
2022-12-11T06:01:29.153Z,4.20
2022-12-11T06:03:56.810Z,4.28
2022-12-11T06:06:24.345Z,4.30
2022-12-11T06:08:52.813Z,3.85
2022-12-11T06:11:23.944Z,4.15
2022-12-11T06:13:52.312Z,4.57
2022-12-11T06:16:19.800Z,4.33
2022-12-11T06:18:47.287Z,4.82
2022-12-11T06:21:20.591Z,4.85
2022-12-11T06:23:49.713Z,5.30
2022-12-11T06:26:17.671Z,5.53
2022-12-11T06:28:45.069Z,6.18
2022-12-11T06:31:12.986Z,5.93
2022-12-11T06:33:40.601Z,5.22
2022-12-11T06:36:10.568Z,6.25
2022-12-11T06:38:38.021Z,5.88
2022-12-11T06:41:06.294Z,5.95
2022-12-11T06:43:37.119Z,5.90
2022-12-11T06:46:10.771Z,4.63
2022-12-11T06:48:38.252Z,5.13
2022-12-11T06:51:07.043Z,5.07
2022-12-11T06:53:34.354Z,4.75
2022-12-11T06:56:10.194Z,4.47
2022-12-11T06:58:38.498Z,4.60
2022-12-11T07:01:18.496Z,4.70
2022-12-11T07:03:45.811Z,5.13
2022-12-11T07:06:13.177Z,4.95
2022-12-11T07:08:40.777Z,5.40
2022-12-11T07:11:09.902Z,5.60
2022-12-11T07:13:37.203Z,4.47
2022-12-11T07:16:10.560Z,4.90
2022-12-11T07:18:42.092Z,4.90
2022-12-11T07:21:11.956Z,4.93
2022-12-11T07:23:39.511Z,4.80
2022-12-11T07:26:09.893Z,5.70
2022-12-11T07:28:37.217Z,5.72
2022-12-11T07:31:08.968Z,4.95
2022-12-11T07:33:36.591Z,4.72
2022-12-11T07:36:05.611Z,4.97
2022-12-11T07:38:33.068Z,4.80
2022-12-11T07:41:08.254Z,5.00
2022-12-11T07:43:35.643Z,4.03
2022-12-11T07:46:07.595Z,4.00
2022-12-11T07:48:38.875Z,3.95
2022-12-11T07:51:33.518Z,4.20
2022-12-11T07:54:07.077Z,4.55
2022-12-11T07:56:34.597Z,4.53
2022-12-11T07:59:03.594Z,4.85
2022-12-11T08:01:33.495Z,4.50
2022-12-11T08:04:00.756Z,4.95
2022-12-11T08:06:30.531Z,4.35
2022-12-11T08:08:58.907Z,4.55
2022-12-11T08:11:26.600Z,3.72
2022-12-11T08:13:53.982Z,4.28
2022-12-11T08:16:21.298Z,5.20
2022-12-11T08:18:48.813Z,4.57
2022-12-11T08:21:21.515Z,5.57
2022-12-11T08:23:49.138Z,4.75
2022-12-11T08:26:22.444Z,4.25
2022-12-11T08:28:49.874Z,4.00
2022-12-11T08:31:17.552Z,4.55
2022-12-11T08:33:45.170Z,5.43
2022-12-11T08:36:14.174Z,4.88
2022-12-11T08:38:42.818Z,4.95
2022-12-11T08:41:10.133Z,5.07
2022-12-11T08:43:37.687Z,4.75
2022-12-11T08:46:05.091Z,5.65
2022-12-11T08:48:32.031Z,5.55
2022-12-11T08:51:04.554Z,5.20
2022-12-11T08:53:32.276Z,5.10
2022-12-11T08:56:13.510Z,4.60
2022-12-11T08:58:40.968Z,6.05
2022-12-11T09:01:10.541Z,6.70
2022-12-11T09:03:38.744Z,6.30
2022-12-11T09:06:14.696Z,5.00
2022-12-11T09:08:51.679Z,3.92
2022-12-11T09:11:21.994Z,4.23
2022-12-11T09:13:49.359Z,4.60
2022-12-11T09:16:18.641Z,4.70
2022-12-11T09:18:47.378Z,4.20
2022-12-11T09:23:42.478Z,4.00
2022-12-11T09:26:11.978Z,4.97
2022-12-11T09:28:44.416Z,4.40
2022-12-11T09:31:18.866Z,4.35
2022-12-11T09:33:46.171Z,4.80
2022-12-11T09:36:13.602Z,4.20
2022-12-11T09:38:41.167Z,4.80
2022-12-11T09:41:23.326Z,5.55
2022-12-11T09:43:59.128Z,5.30
2022-12-11T09:46:33.565Z,6.07
2022-12-11T09:49:04.820Z,5.75
2022-12-11T09:51:42.948Z,5.03
2022-12-11T09:54:13.618Z,5.10
2022-12-11T09:57:07.556Z,7.40
2022-12-11T09:59:40.538Z,6.57
2022-12-11T10:02:22.629Z,7.15
2022-12-11T10:05:01.838Z,8.18
2022-12-11T10:07:53.215Z,8.55
2022-12-11T10:10:42.844Z,9.15
2022-12-11T10:13:34.073Z,7.03
2022-12-11T10:16:39.711Z,7.97
2022-12-11T10:19:14.650Z,5.72
2022-12-11T10:21:42.922Z,7.10
2022-12-11T10:25:10.094Z,7.47
2022-12-11T10:27:33.034Z,6.82
2022-12-11T10:30:16.159Z,6.55
2022-12-11T10:32:43.544Z,5.50
2022-12-11T10:35:27.171Z,6.18
2022-12-11T10:38:16.000Z,7.05
2022-12-11T10:40:50.522Z,6.95
2022-12-11T10:43:17.830Z,7.05
2022-12-11T10:45:52.668Z,7.28
2022-12-11T10:48:19.624Z,7.55
2022-12-11T10:51:03.061Z,7.28
2022-12-11T10:53:31.639Z,6.90
2022-12-11T10:55:58.997Z,7.35
2022-12-11T10:58:29.223Z,6.57
2022-12-11T11:01:21.636Z,6.80
2022-12-11T11:03:59.127Z,7.95
2022-12-11T11:06:26.611Z,9.00
2022-12-11T11:08:56.364Z,7.15
2022-12-11T11:11:28.586Z,6.93
2022-12-11T11:14:25.009Z,7.13
2022-12-11T11:16:55.637Z,6.32
2022-12-11T11:19:30.927Z,6.55
2022-12-11T11:22:19.602Z,6.35
2022-12-11T11:24:57.111Z,7.40
2022-12-11T11:27:35.773Z,6.88
2022-12-11T11:32:38.687Z,6.18
2022-12-11T11:35:22.718Z,7.20
2022-12-11T11:38:02.949Z,6.75
2022-12-11T11:40:42.716Z,7.30
2022-12-11T11:43:53.428Z,6.13
2022-12-11T11:46:25.890Z,7.80
2022-12-11T11:49:04.448Z,7.75
2022-12-11T11:51:36.180Z,7.43
2022-12-11T11:54:20.873Z,7.35
2022-12-11T11:56:51.774Z,6.88
2022-12-11T11:59:47.250Z,6.85
2022-12-11T12:02:17.851Z,7.10
2022-12-11T12:04:46.398Z,6.25
2022-12-11T12:07:41.082Z,7.25
2022-12-11T12:11:12.644Z,6.72
2022-12-11T12:13:50.152Z,6.70
2022-12-11T12:16:52.574Z,6.50
2022-12-11T12:19:35.268Z,6.03
2022-12-11T12:22:30.869Z,7.25
2022-12-11T12:25:24.401Z,7.07
2022-12-11T12:27:59.675Z,7.13
2022-12-11T12:30:32.353Z,7.07
2022-12-11T12:33:17.887Z,7.07
2022-12-11T12:36:06.852Z,7.40
2022-12-11T12:39:08.646Z,6.53
2022-12-11T12:42:07.222Z,6.50
2022-12-11T12:44:58.325Z,6.68
2022-12-11T12:47:28.826Z,6.47
2022-12-11T12:49:58.817Z,5.93
2022-12-11T12:52:39.425Z,5.78
2022-12-11T12:55:24.683Z,5.63
2022-12-11T12:58:08.365Z,6.50
2022-12-11T13:00:35.706Z,6.13
2022-12-11T13:03:13.054Z,6.20
2022-12-11T13:05:43.298Z,5.88
2022-12-11T13:08:11.707Z,6.75
2022-12-11T13:10:41.831Z,5.90
2022-12-11T13:13:38.060Z,5.63
2022-12-11T13:16:17.281Z,5.95
2022-12-11T13:18:47.674Z,6.32
2022-12-11T13:21:38.336Z,5.38
2022-12-11T13:24:24.026Z,5.47
2022-12-11T13:26:51.711Z,5.47
2022-12-11T13:30:06.258Z,5.50
2022-12-11T13:32:34.206Z,6.07
2022-12-11T13:35:06.604Z,5.43
2022-12-11T13:37:41.439Z,5.70
2022-12-11T13:40:33.263Z,5.40
2022-12-11T13:43:03.916Z,6.25
2022-12-11T13:45:45.282Z,7.53
2022-12-11T13:48:21.453Z,7.05
2022-12-11T13:50:49.602Z,6.40
2022-12-11T13:53:18.132Z,6.68
2022-12-11T13:55:46.219Z,6.45
2022-12-11T13:58:21.858Z,6.88
2022-12-11T14:01:08.249Z,7.80
2022-12-11T14:03:35.917Z,7.40
2022-12-11T14:06:04.241Z,6.35
2022-12-11T14:08:35.998Z,6.13
2022-12-11T14:11:03.419Z,6.65
2022-12-11T14:13:40.378Z,6.57
2022-12-11T14:16:07.990Z,6.70
2022-12-11T14:18:36.866Z,6.70
2022-12-11T14:21:06.598Z,7.47
2022-12-11T14:23:35.755Z,6.70
2022-12-11T14:26:17.997Z,6.47
2022-12-11T14:28:45.520Z,6.00
2022-12-11T14:31:21.636Z,6.88
2022-12-11T14:33:55.822Z,6.60
2022-12-11T14:36:23.762Z,6.32
2022-12-11T14:39:00.898Z,7.97
2022-12-11T14:41:43.041Z,7.40
2022-12-11T14:44:15.677Z,7.45
2022-12-11T14:46:58.445Z,7.05
2022-12-11T14:49:47.058Z,7.93
2022-12-11T14:54:47.866Z,8.15
2022-12-11T14:57:26.858Z,6.50
2022-12-11T14:59:55.286Z,6.25
2022-12-11T15:02:33.827Z,6.57
2022-12-11T15:05:07.795Z,7.07
2022-12-11T15:07:34.797Z,6.78
2022-12-11T15:10:02.085Z,6.80
2022-12-11T15:12:29.471Z,7.28
2022-12-11T15:15:03.409Z,7.10
2022-12-11T15:17:30.940Z,6.65
2022-12-11T15:20:07.812Z,6.05
2022-12-11T15:22:36.170Z,7.80
2022-12-11T15:25:03.775Z,6.57
2022-12-11T15:27:38.890Z,6.57
2022-12-11T15:30:20.085Z,6.95
2022-12-11T15:32:46.981Z,6.82
2022-12-11T15:35:26.262Z,6.97
2022-12-11T15:37:55.122Z,7.22
2022-12-11T15:40:22.778Z,6.28
2022-12-11T15:42:50.819Z,6.60
2022-12-11T15:45:26.125Z,6.80
2022-12-11T15:47:53.437Z,5.97
2022-12-11T15:50:25.816Z,6.35
2022-12-11T15:52:53.940Z,6.10
2022-12-11T15:55:22.592Z,5.72
2022-12-11T15:57:49.828Z,6.40
2022-12-11T16:00:19.084Z,6.07
2022-12-11T16:02:46.995Z,6.53
2022-12-11T16:05:14.827Z,5.87
2022-12-11T16:07:42.035Z,7.15
2022-12-11T16:10:14.531Z,6.53
2022-12-11T16:12:42.861Z,7.15
2022-12-11T16:15:11.437Z,7.32
2022-12-11T16:20:07.173Z,6.93
2022-12-11T16:22:34.451Z,6.63
2022-12-11T16:25:01.649Z,6.22
2022-12-11T16:27:29.073Z,7.43
2022-12-11T16:29:56.191Z,6.35
2022-12-11T16:32:23.523Z,6.53
2022-12-11T16:34:50.423Z,6.25
2022-12-11T16:37:17.669Z,6.53
2022-12-11T16:39:46.060Z,6.93
2022-12-11T16:42:13.381Z,6.57
2022-12-11T16:44:44.033Z,5.95
2022-12-11T16:47:11.660Z,6.13
2022-12-11T16:49:38.880Z,6.57
2022-12-11T16:52:05.889Z,6.43
2022-12-11T16:54:33.190Z,6.03
2022-12-11T16:57:00.575Z,6.40
2022-12-11T16:59:29.050Z,6.00
2022-12-11T17:02:00.936Z,6.55
2022-12-11T17:04:28.794Z,5.65
2022-12-11T17:06:55.887Z,6.60
2022-12-11T17:09:22.802Z,6.28
2022-12-11T17:11:50.196Z,6.32
2022-12-11T17:14:17.506Z,6.10
2022-12-11T17:16:44.753Z,6.20
2022-12-11T17:19:11.719Z,5.90
2022-12-11T17:21:39.007Z,5.97
2022-12-11T17:24:07.230Z,5.53
2022-12-11T17:26:34.722Z,6.03
2022-12-11T17:29:01.989Z,5.85
2022-12-11T17:31:29.394Z,5.97
2022-12-11T17:33:57.457Z,5.80
2022-12-11T17:36:24.618Z,4.97
2022-12-11T17:38:51.502Z,6.07
2022-12-11T17:41:21.081Z,5.47
2022-12-11T17:43:49.932Z,6.30
2022-12-11T17:48:45.229Z,6.40
2022-12-11T17:51:14.415Z,6.00
2022-12-11T17:53:49.446Z,5.65
2022-12-11T17:56:27.438Z,5.70
2022-12-11T17:58:54.682Z,6.20
2022-12-11T18:01:22.531Z,5.53
2022-12-11T18:03:49.573Z,5.97
2022-12-11T18:06:23.192Z,6.28
2022-12-11T18:08:50.501Z,5.88
2022-12-11T18:11:19.050Z,6.13
2022-12-11T18:13:46.523Z,6.15
2022-12-11T18:16:17.480Z,6.15
2022-12-11T18:18:46.368Z,6.28
2022-12-11T18:21:16.332Z,6.45
2022-12-11T18:23:46.086Z,6.43
2022-12-11T18:26:14.738Z,5.68
2022-12-11T18:31:09.871Z,6.88
2022-12-11T18:33:38.828Z,6.82
2022-12-11T18:36:06.609Z,6.15
2022-12-11T18:38:34.029Z,7.10
2022-12-11T18:41:05.589Z,6.28
2022-12-11T18:43:32.916Z,6.82
2022-12-11T18:46:00.215Z,6.28
2022-12-11T18:48:27.466Z,5.80
2022-12-11T18:50:54.435Z,5.97
2022-12-11T18:53:21.434Z,5.78
2022-12-11T18:55:49.260Z,6.25
2022-12-11T18:58:20.626Z,5.97
2022-12-11T19:00:47.999Z,6.05
2022-12-11T19:03:15.530Z,6.47
2022-12-11T19:05:43.929Z,5.85
2022-12-11T19:08:13.939Z,5.30
2022-12-11T19:10:47.057Z,5.80
2022-12-11T19:13:14.460Z,5.68
2022-12-11T19:15:42.907Z,5.80
2022-12-11T19:18:11.470Z,6.07
2022-12-11T19:20:49.277Z,5.65
2022-12-11T19:25:46.507Z,5.75
2022-12-11T19:28:14.021Z,5.22
2022-12-11T19:30:46.701Z,6.05
2022-12-11T19:33:14.122Z,5.50
2022-12-11T19:35:41.583Z,6.35
2022-12-11T19:38:08.959Z,5.32
2022-12-11T19:40:45.032Z,4.65
2022-12-11T19:43:12.042Z,5.63
2022-12-11T19:45:39.174Z,5.57
2022-12-11T19:48:06.513Z,4.68
2022-12-11T19:50:36.458Z,5.78
2022-12-11T19:53:03.884Z,4.35
2022-12-11T19:55:33.941Z,4.82
2022-12-11T19:58:01.204Z,5.10
2022-12-11T20:00:28.617Z,4.55
2022-12-11T20:02:55.966Z,5.55
2022-12-11T20:05:23.373Z,5.22
2022-12-11T20:07:50.728Z,5.00
2022-12-11T20:10:18.240Z,5.07
2022-12-11T20:12:45.607Z,5.00
2022-12-11T20:15:13.763Z,5.55
2022-12-11T20:17:44.725Z,5.57
2022-12-11T20:20:12.372Z,5.30
2022-12-11T20:22:55.255Z,4.68
2022-12-11T20:25:23.003Z,4.72
2022-12-11T20:27:50.535Z,5.25
2022-12-11T20:30:20.823Z,5.22
2022-12-11T20:32:48.036Z,4.70
2022-12-11T20:35:18.670Z,5.10
2022-12-11T20:37:46.373Z,5.47
2022-12-11T20:40:17.082Z,5.63
2022-12-11T20:42:45.900Z,5.25
2022-12-11T20:47:43.088Z,5.60
2022-12-11T20:50:11.234Z,6.30
2022-12-11T20:52:38.582Z,6.22
2022-12-11T20:55:06.126Z,6.85
2022-12-11T20:57:33.475Z,6.25
2022-12-11T21:00:00.567Z,7.15
2022-12-11T21:02:30.889Z,6.60
2022-12-11T21:04:58.639Z,6.32
2022-12-11T21:07:25.987Z,7.57
2022-12-11T21:09:53.253Z,7.05
2022-12-11T21:12:20.604Z,7.32
2022-12-11T21:14:47.939Z,7.35
2022-12-11T21:17:15.376Z,6.90
2022-12-11T21:19:42.780Z,7.18
2022-12-11T21:22:10.110Z,7.43
2022-12-11T21:24:37.338Z,8.02
2022-12-11T21:27:04.403Z,8.25
2022-12-11T21:29:31.730Z,8.10
2022-12-11T21:31:59.393Z,8.90
2022-12-11T21:34:27.186Z,9.32
2022-12-11T21:36:57.013Z,8.68
2022-12-11T21:39:26.251Z,8.75
2022-12-11T21:41:53.185Z,8.82
2022-12-11T21:47:07.759Z,8.55
2022-12-11T21:49:35.077Z,9.25
2022-12-11T21:52:02.632Z,8.68
2022-12-11T21:54:29.891Z,7.65
2022-12-11T21:56:57.555Z,8.57
2022-12-11T21:59:25.014Z,9.38
2022-12-11T22:01:52.433Z,8.55
2022-12-11T22:04:19.544Z,8.48
2022-12-11T22:06:47.437Z,8.27
2022-12-11T22:09:16.438Z,8.93
2022-12-11T22:11:43.797Z,7.97
2022-12-11T22:14:14.135Z,8.15
2022-12-11T22:16:41.590Z,7.53
2022-12-11T22:19:09.135Z,7.68
2022-12-11T22:21:36.882Z,7.68
2022-12-11T22:24:04.738Z,7.07
2022-12-11T22:26:31.782Z,7.50
2022-12-11T22:28:59.060Z,8.35
2022-12-11T22:31:27.462Z,7.43
2022-12-11T22:33:55.214Z,6.72
2022-12-11T22:36:26.765Z,7.47
2022-12-11T22:38:54.228Z,6.70
2022-12-11T22:41:28.509Z,6.38
2022-12-11T22:43:56.206Z,7.75
2022-12-11T22:46:27.441Z,5.68
2022-12-11T22:48:54.834Z,6.35
2022-12-11T22:51:22.096Z,5.97
2022-12-11T22:53:49.531Z,6.05
2022-12-11T22:56:16.939Z,5.50
2022-12-11T22:58:44.225Z,5.90
2022-12-11T23:01:22.854Z,5.57
2022-12-11T23:06:19.330Z,5.18
2022-12-11T23:08:46.853Z,5.25
2022-12-11T23:11:36.380Z,4.80
2022-12-11T23:14:05.097Z,4.25
2022-12-11T23:16:32.622Z,5.05
2022-12-11T23:19:00.007Z,4.65
2022-12-11T23:21:28.718Z,4.75
2022-12-11T23:26:23.248Z,4.93
2022-12-11T23:28:50.816Z,4.60
2022-12-11T23:31:18.315Z,4.18
2022-12-11T23:33:45.725Z,4.60
2022-12-11T23:36:13.522Z,4.30
2022-12-11T23:38:40.946Z,4.25
2022-12-11T23:41:09.655Z,4.97
2022-12-11T23:46:07.330Z,3.78
2022-12-11T23:48:34.626Z,4.22
2022-12-11T23:51:02.342Z,4.57
2022-12-11T23:53:29.457Z,5.22
2022-12-11T23:55:56.580Z,4.38
2022-12-11T23:58:23.526Z,4.35
